Domov               UVHVVR             MKGP            O straneh              
ZDRAVSTVENO VARSTVO RASTLIN
  MREŽA AGROMET. POSTAJ
 ► PROGNOSTIČNA OBVESTILA
AGROMETEOROLOŠKI PODATKI -
ARSO
OBVLADOVANJE TVEGANJ ZARADI
NEUGODNIH VREMENSKIH RAZMER
  ► NARAVNE NESREČE
  ► SUŠA/MOČA
  ► NAMAKANJE
  ► ŽLED (gozdarstvo)
KARTOGRAFSKI PRIKAZI
SPLETNE POVEZAVE
PROJEKTI IN PUBLIKACIJE

AGROMETEOROLOŠKA MREŽA: VREMENSKE POSTAJE IN FENOLOŠKA OPAZOVANJA

Pregled podatkov za lokacijo Maribor - BTŠ, meteorološka postaja 35810

Pregled senzorjev na lokaciji

ID Ime Zadnja
vrednost
Datum in čas
zadnje
spremembe
(Lokalni čas)
Tip
senzorja
4297 Omočenost lista (U) 10 U 14.10.2019 20:30 A730WET
1723 Padavine (mm) 0 mm 14.10.2019 20:30 Generic 0.2 mm
1722 Relativna vlaga 2 m (% RH) 95.58 % RH 14.10.2019 20:30 Generic 0 - 100 %
1721 Temperatura 2 m (°C) 12.09 °C 14.10.2019 20:30 Generic -40 - +60 °C
4296 Smer vetra (°) 338.73 ° 14.10.2019 20:30 Generic 0 - 360
4295 Hitrost vetra (km/h) 0.37 km/h 14.10.2019 20:30 Generic 100 km/h

Pregled podatkov zadnjih 24 ur

Zap.
št.
Datum in čas
(Centralno
evropski čas)
Maribor - BTŠ
Omočenost
lista
Padavine Relativna
vlaga
2
m
Temperatura
2
m
Smer
vetra
Hitrost
vetra
1 14.10.2019 20:30
2 14.10.2019 20:00
3 14.10.2019 19:30 10 0 95.6 12.1 338.7 0.4
4 14.10.2019 19:00 10 0 94.6 12.8 55.3 0.4
5 14.10.2019 18:30 9 0 92.7 14.1 354.4 0.2
6 14.10.2019 18:00 5 0 89.7 15.1 250.8 0.3
7 14.10.2019 17:30 1 0 83.3 16.8 92.4 0.4
8 14.10.2019 17:00 0 0 78.2 18.2 57 0.3
9 14.10.2019 16:30 0 0 73.9 19.4 46.5 0.6
10 14.10.2019 16:00 0 0 70.7 20.1 51.6 0.8
11 14.10.2019 15:30 0 0 66.3 21 93.6 1.4
12 14.10.2019 15:00 0 0 63.8 21.7 344.7 1.8
13 14.10.2019 14:30 0 0 61.7 22.1 97.5 2.3
14 14.10.2019 14:00 0 0 61 22.9 70.4 1.4
15 14.10.2019 13:30 0 0 62.6 21.8 126.7 1.4
16 14.10.2019 13:00 0 0 60.5 22.1 115.6 1.5
17 14.10.2019 12:30 0 0 62.5 21.6 6 1.2
18 14.10.2019 12:00 0 0 65.1 20.6 70.2 1.2
19 14.10.2019 11:30 0 0 70.6 19 78.5 1.2
20 14.10.2019 11:00 0 0 74.9 17.2 101 1.4
21 14.10.2019 10:30 0 0 74.7 17.1 90.2 0.9
22 14.10.2019 10:00 0 0 76 16.8 91.6 1.4
23 14.10.2019 09:30 4 0 78.1 15.9 124.8 0.8
24 14.10.2019 09:00 10 0 88.9 14.1 0.4 0.3
25 14.10.2019 08:30 10 0 98.5 12.1 150 0.6
26 14.10.2019 08:00 10 0 98.6 10.2 180.9 0.1
27 14.10.2019 07:30 10 0 98.6 8.1 210 0.2
28 14.10.2019 07:00 10 0 98.4 6.9 258.1 0.1
29 14.10.2019 06:30 10 0 98.3 6.9 293.8 0.3
30 14.10.2019 06:00 10 0 98.4 7.5 233.9 0.5
31 14.10.2019 05:30 10 0 98.2 7.4 195.7 0.3
32 14.10.2019 05:00 10 0 98.2 7.4 243.9 0.2
33 14.10.2019 04:30 10 0 98.1 7.4 110.5 0.3
34 14.10.2019 04:00 10 0 98.1 7.7 255.6 0.1
35 14.10.2019 03:30 10 0 98 7.7 200 0.3
36 14.10.2019 03:00 10 0 98 8.1 274.5 0.1
37 14.10.2019 02:30 10 0 97.8 8.2 277.6 0.5
38 14.10.2019 02:00 10 0 97.8 8.5 269.3 0.1
39 14.10.2019 01:30 10 0 97.7 8.7 258.5 0.4
40 14.10.2019 01:00 10 0 97.5 8.7 106.3 0.4
41 14.10.2019 00:30 10 0 97.2 9 247.9 0.1
42 14.10.2019 00:00 10 0 96.9 9.5 172.9 0.3
43 13.10.2019 23:30 10 0 96.9 10.6 274 0.5
44 13.10.2019 23:00 10 0 96.9 10.3 254.9 0.5
45 13.10.2019 22:30 10 0 96.3 10.2 283.6 0.3
46 13.10.2019 22:00 10 0 95.8 10.9 294.7 0.1
47 13.10.2019 21:30 10 0 94.8 11.4 221.8 0.3
48 13.10.2019 21:00 10 0 93.3 12.7 221 0.6
© 2011 Ministrstvo za kmetijstvo, gozdarstvo in prehrano. Vse pravice pridržane.